createdAt,value
2023-04-10T00:00:33.228Z,4.10
2023-04-10T00:03:02.399Z,4.10
2023-04-10T00:05:29.644Z,4.10
2023-04-10T00:07:56.937Z,4.10
2023-04-10T00:10:26.470Z,4.00
2023-04-10T00:12:54.184Z,3.90
2023-04-10T00:15:21.485Z,3.90
2023-04-10T00:17:50.711Z,3.80
2023-04-10T00:20:17.864Z,3.80
2023-04-10T00:22:44.888Z,3.70
2023-04-10T00:25:11.997Z,3.70
2023-04-10T00:27:39.026Z,3.70
2023-04-10T00:30:07.567Z,3.70
2023-04-10T00:32:34.689Z,3.70
2023-04-10T00:35:01.854Z,3.70
2023-04-10T00:37:28.890Z,3.70
2023-04-10T00:39:56.389Z,3.60
2023-04-10T00:42:23.447Z,3.60
2023-04-10T00:44:50.714Z,3.60
2023-04-10T00:47:18.022Z,3.50
2023-04-10T00:49:45.424Z,3.50
2023-04-10T00:52:12.706Z,3.50
2023-04-10T00:54:40.326Z,3.50
2023-04-10T00:57:07.656Z,3.40
2023-04-10T00:59:35.683Z,3.40
2023-04-10T01:02:03.216Z,3.40
2023-04-10T01:04:32.030Z,3.40
2023-04-10T01:07:10.715Z,3.30
2023-04-10T01:09:48.179Z,3.20
2023-04-10T01:12:55.101Z,3.20
2023-04-10T01:15:26.557Z,3.10
2023-04-10T01:17:58.884Z,3.10
2023-04-10T01:20:31.942Z,3.10
2023-04-10T01:23:06.568Z,3.10
2023-04-10T01:25:47.480Z,3.00
2023-04-10T01:28:54.882Z,3.00
2023-04-10T01:31:31.334Z,3.00
2023-04-10T01:34:06.357Z,2.90
2023-04-10T01:36:38.252Z,2.80
2023-04-10T01:39:08.210Z,2.80
2023-04-10T01:41:36.259Z,2.80
2023-04-10T01:44:04.641Z,2.80
2023-04-10T01:46:32.991Z,2.80
2023-04-10T01:49:02.592Z,2.80
2023-04-10T01:51:31.483Z,2.80
2023-04-10T01:54:02.444Z,2.80
2023-04-10T01:56:30.216Z,2.70
2023-04-10T01:58:57.597Z,2.70
2023-04-10T02:01:29.770Z,2.70
2023-04-10T02:03:59.411Z,2.70
2023-04-10T02:06:32.042Z,2.70
2023-04-10T02:09:11.188Z,2.70
2023-04-10T02:11:45.093Z,2.70
2023-04-10T02:14:18.314Z,2.70
2023-04-10T02:16:45.769Z,2.70
2023-04-10T02:19:14.135Z,2.70
2023-04-10T02:21:44.613Z,2.60
2023-04-10T02:24:11.882Z,2.50
2023-04-10T02:26:49.330Z,2.40
2023-04-10T02:29:17.209Z,2.30
2023-04-10T02:31:45.966Z,2.20
2023-04-10T02:34:14.791Z,2.20
2023-04-10T02:36:41.924Z,2.20
2023-04-10T02:39:12.447Z,2.20
2023-04-10T02:41:47.633Z,2.30
2023-04-10T02:44:14.999Z,2.20
2023-04-10T02:46:43.183Z,2.20
2023-04-10T02:49:13.796Z,2.20
2023-04-10T02:51:41.109Z,2.10
2023-04-10T02:54:08.192Z,2.10
2023-04-10T02:56:36.594Z,2.10
2023-04-10T02:59:03.805Z,2.10
2023-04-10T03:01:32.184Z,2.00
2023-04-10T03:04:00.062Z,1.90
2023-04-10T03:06:31.626Z,1.90
2023-04-10T03:08:59.191Z,1.80
2023-04-10T03:11:27.707Z,1.70
2023-04-10T03:13:55.712Z,1.70
2023-04-10T03:16:23.146Z,1.70
2023-04-10T03:18:50.514Z,1.70
2023-04-10T03:21:17.678Z,1.70
2023-04-10T03:23:44.899Z,1.80
2023-04-10T03:26:12.096Z,1.90
2023-04-10T03:28:39.824Z,1.90
2023-04-10T03:31:10.777Z,1.80
2023-04-10T03:33:39.393Z,1.80
2023-04-10T03:36:07.593Z,1.80
2023-04-10T03:38:34.738Z,1.80
2023-04-10T03:41:02.624Z,1.80
2023-04-10T03:43:32.152Z,1.80
2023-04-10T03:46:01.839Z,1.80
2023-04-10T03:48:30.732Z,1.70
2023-04-10T03:50:58.490Z,1.70
2023-04-10T03:53:25.645Z,1.70
2023-04-10T03:55:54.345Z,1.60
2023-04-10T03:58:22.933Z,1.60
2023-04-10T04:00:51.605Z,1.50
2023-04-10T04:03:35.038Z,1.50
2023-04-10T04:06:22.134Z,1.50
2023-04-10T04:09:09.247Z,1.40
2023-04-10T04:11:46.870Z,1.40
2023-04-10T04:14:34.187Z,1.40
2023-04-10T04:17:21.355Z,1.40
2023-04-10T04:20:09.159Z,1.40
2023-04-10T04:22:43.669Z,1.50
2023-04-10T04:25:30.869Z,1.50
2023-04-10T04:28:05.868Z,1.40
2023-04-10T04:30:32.989Z,1.40
2023-04-10T04:33:11.619Z,1.50
2023-04-10T04:35:58.596Z,1.50
2023-04-10T04:38:38.866Z,1.40
2023-04-10T04:41:25.988Z,1.50
2023-04-10T04:44:06.822Z,1.40
2023-04-10T04:46:51.771Z,1.40
2023-04-10T04:49:18.784Z,1.50
2023-04-10T04:51:51.390Z,1.50
2023-04-10T04:54:38.379Z,1.50
2023-04-10T04:57:24.570Z,1.50
2023-04-10T05:00:12.053Z,1.60
2023-04-10T05:02:55.715Z,1.70
2023-04-10T05:05:35.735Z,1.70
2023-04-10T05:08:13.297Z,1.90
2023-04-10T05:11:00.591Z,2.00
2023-04-10T05:13:47.496Z,2.20
2023-04-10T05:16:23.925Z,2.30
2023-04-10T05:18:57.444Z,2.50
2023-04-10T05:21:44.552Z,2.60
2023-04-10T05:24:32.019Z,2.70
2023-04-10T05:27:12.448Z,2.90
2023-04-10T05:29:59.538Z,3.10
2023-04-10T05:32:46.704Z,3.20
2023-04-10T05:35:33.683Z,3.40
2023-04-10T05:38:13.969Z,3.60
2023-04-10T05:40:48.479Z,3.80
2023-04-10T05:43:35.694Z,3.90
2023-04-10T05:46:11.828Z,4.00
2023-04-10T05:48:49.100Z,4.10
2023-04-10T05:51:21.950Z,4.10
2023-04-10T05:54:06.618Z,4.20
2023-04-10T05:56:53.698Z,4.30
2023-04-10T05:59:37.667Z,4.40
2023-04-10T06:02:25.122Z,4.50
2023-04-10T06:04:52.491Z,4.60
2023-04-10T06:07:20.386Z,4.80
2023-04-10T06:09:47.604Z,4.90
2023-04-10T06:12:14.679Z,5.00
2023-04-10T06:14:42.632Z,5.20
2023-04-10T06:17:10.128Z,5.40
2023-04-10T06:19:37.241Z,5.50
2023-04-10T06:22:04.959Z,5.90
2023-04-10T06:24:32.371Z,7.30
2023-04-10T06:26:59.781Z,9.70
2023-04-10T06:29:26.873Z,12.20
2023-04-10T06:31:54.085Z,14.30
2023-04-10T06:34:21.671Z,16.10
2023-04-10T06:37:00.895Z,17.50
2023-04-10T06:39:27.955Z,18.10
2023-04-10T06:41:55.069Z,19.20
2023-04-10T06:44:32.597Z,19.70
2023-04-10T06:46:59.808Z,21.00
2023-04-10T06:49:26.893Z,21.50
2023-04-10T06:51:53.917Z,21.80
2023-04-10T06:54:21.140Z,21.30
2023-04-10T06:56:48.219Z,21.60
2023-04-10T06:59:15.860Z,20.80
2023-04-10T07:01:42.978Z,21.00
2023-04-10T07:04:10.184Z,21.10
2023-04-10T07:06:37.511Z,21.50
2023-04-10T07:09:04.574Z,21.60
2023-04-10T07:11:31.815Z,21.80
2023-04-10T07:13:59.043Z,22.40
2023-04-10T07:16:26.389Z,22.50
2023-04-10T07:18:53.909Z,22.20
2023-04-10T07:21:21.517Z,22.70
2023-04-10T07:23:49.225Z,22.90
2023-04-10T07:26:17.014Z,23.00
2023-04-10T07:28:44.409Z,23.10
2023-04-10T07:31:12.001Z,23.20
2023-04-10T07:33:39.743Z,23.50
2023-04-10T07:36:07.794Z,23.70
2023-04-10T07:38:35.741Z,23.90
2023-04-10T07:41:03.293Z,23.70
2023-04-10T07:43:30.726Z,23.70
2023-04-10T07:45:58.004Z,23.60
2023-04-10T07:48:25.577Z,23.80
2023-04-10T07:50:53.440Z,23.20
2023-04-10T07:53:20.886Z,23.40
2023-04-10T07:55:50.293Z,23.60
2023-04-10T07:58:17.380Z,24.00
2023-04-10T08:00:44.679Z,24.10
2023-04-10T08:03:13.727Z,24.80
2023-04-10T08:05:41.051Z,24.40
2023-04-10T08:08:08.015Z,24.40
2023-04-10T08:10:38.049Z,24.30
2023-04-10T08:13:06.207Z,24.60
2023-04-10T08:15:33.628Z,25.40
2023-04-10T08:18:00.822Z,24.70
2023-04-10T08:20:28.464Z,24.90
2023-04-10T08:22:58.880Z,25.30
2023-04-10T08:25:31.234Z,25.60
2023-04-10T08:28:00.540Z,25.30
2023-04-10T08:30:27.606Z,25.60
2023-04-10T08:32:54.639Z,25.60
2023-04-10T08:35:21.793Z,25.20
2023-04-10T08:37:53.587Z,25.20
2023-04-10T08:40:29.533Z,25.10
2023-04-10T08:42:56.768Z,24.30
2023-04-10T08:45:23.867Z,22.60
2023-04-10T08:47:53.244Z,21.60
2023-04-10T08:50:21.718Z,20.90
2023-04-10T08:52:53.084Z,19.90
2023-04-10T08:55:21.511Z,19.90
2023-04-10T08:57:58.043Z,19.40
2023-04-10T09:00:29.239Z,18.90
2023-04-10T09:02:58.557Z,18.70
2023-04-10T09:05:27.725Z,18.90
2023-04-10T09:07:55.242Z,19.10
2023-04-10T09:10:22.948Z,19.10
2023-04-10T09:12:50.489Z,19.00
2023-04-10T09:15:17.764Z,19.40
2023-04-10T09:18:04.729Z,19.20
2023-04-10T09:20:32.776Z,19.50
2023-04-10T09:22:59.897Z,19.90
2023-04-10T09:25:35.534Z,20.20
2023-04-10T09:28:05.678Z,20.20
2023-04-10T09:30:37.134Z,20.30
2023-04-10T09:33:20.717Z,20.60
2023-04-10T09:35:47.875Z,20.30
2023-04-10T09:38:20.600Z,19.90
2023-04-10T09:40:48.974Z,19.90
2023-04-10T09:43:19.966Z,19.80
2023-04-10T09:45:48.598Z,19.60
2023-04-10T09:48:16.231Z,19.20
2023-04-10T09:50:43.684Z,19.00
2023-04-10T09:53:13.028Z,19.10
2023-04-10T09:55:42.451Z,19.10
2023-04-10T09:58:11.092Z,18.80
2023-04-10T10:00:43.886Z,18.70
2023-04-10T10:03:15.461Z,18.90
2023-04-10T10:05:46.493Z,19.20
2023-04-10T10:08:15.009Z,19.00
2023-04-10T10:10:54.379Z,19.10
2023-04-10T10:13:42.522Z,19.40
2023-04-10T10:16:18.142Z,19.50
2023-04-10T10:18:54.150Z,18.90
2023-04-10T10:21:23.331Z,18.80
2023-04-10T10:23:54.253Z,18.90
2023-04-10T10:26:23.728Z,18.60
2023-04-10T10:28:53.760Z,18.40
2023-04-10T10:31:23.778Z,17.80
2023-04-10T10:33:52.873Z,17.50
2023-04-10T10:36:20.905Z,17.50
2023-04-10T10:38:59.893Z,17.50
2023-04-10T10:41:35.772Z,18.00
2023-04-10T10:44:12.735Z,18.20
2023-04-10T10:46:44.210Z,18.60
2023-04-10T10:49:11.259Z,18.80
2023-04-10T10:51:48.166Z,19.10
2023-04-10T10:54:34.233Z,19.30
2023-04-10T10:57:03.112Z,19.30
2023-04-10T10:59:49.990Z,18.70
2023-04-10T11:02:18.656Z,18.40
2023-04-10T11:04:47.652Z,18.30
2023-04-10T11:07:16.647Z,18.00
2023-04-10T11:09:50.581Z,18.10
2023-04-10T11:12:21.570Z,18.20
2023-04-10T11:15:06.317Z,18.10
2023-04-10T11:17:51.253Z,17.80
2023-04-10T11:20:22.039Z,17.40
2023-04-10T11:23:10.198Z,17.30
2023-04-10T11:25:54.699Z,17.50
2023-04-10T11:28:38.573Z,17.70
2023-04-10T11:31:22.967Z,18.00
2023-04-10T11:34:02.027Z,18.10
2023-04-10T11:36:29.711Z,17.70
2023-04-10T11:39:01.003Z,17.50
2023-04-10T11:41:30.647Z,17.20
2023-04-10T11:43:59.443Z,17.00
2023-04-10T11:46:26.851Z,16.90
2023-04-10T11:49:00.753Z,17.20
2023-04-10T11:51:28.526Z,17.40
2023-04-10T11:54:13.929Z,17.60
2023-04-10T11:56:43.327Z,17.80
2023-04-10T11:59:13.407Z,18.20
2023-04-10T12:01:43.123Z,18.50
2023-04-10T12:04:19.135Z,18.90
2023-04-10T12:06:48.901Z,18.90
2023-04-10T12:09:17.573Z,18.70
2023-04-10T12:12:03.724Z,18.40
2023-04-10T12:14:33.117Z,17.80
2023-04-10T12:17:01.502Z,17.40
2023-04-10T12:19:29.418Z,17.20
2023-04-10T12:21:58.329Z,16.70
2023-04-10T12:24:45.409Z,16.50
2023-04-10T12:27:20.968Z,16.50
2023-04-10T12:29:57.182Z,16.70
2023-04-10T12:32:25.749Z,17.00
2023-04-10T12:34:57.402Z,17.10
2023-04-10T12:37:25.974Z,17.10
2023-04-10T12:39:53.175Z,17.20
2023-04-10T12:42:22.843Z,17.70
2023-04-10T12:44:55.206Z,17.90
2023-04-10T12:47:23.290Z,18.10
2023-04-10T12:50:06.393Z,18.00
2023-04-10T12:52:34.453Z,17.60
2023-04-10T12:55:18.878Z,17.50
2023-04-10T12:57:47.769Z,17.40
2023-04-10T13:00:17.141Z,17.20
2023-04-10T13:02:44.801Z,17.10
2023-04-10T13:05:12.679Z,17.10
2023-04-10T13:07:41.226Z,17.10
2023-04-10T13:10:09.101Z,16.90
2023-04-10T13:12:38.006Z,16.80
2023-04-10T13:15:07.718Z,16.70
2023-04-10T13:17:35.435Z,16.60
2023-04-10T13:20:03.069Z,17.00
2023-04-10T13:22:30.052Z,17.40
2023-04-10T13:24:57.231Z,17.70
2023-04-10T13:27:24.249Z,18.00
2023-04-10T13:29:51.379Z,17.80
2023-04-10T13:32:18.429Z,17.60
2023-04-10T13:34:45.500Z,17.60
2023-04-10T13:37:13.778Z,17.50
2023-04-10T13:39:41.093Z,17.30
2023-04-10T13:42:08.164Z,17.10
2023-04-10T13:44:35.256Z,16.90
2023-04-10T13:47:02.420Z,16.40
2023-04-10T13:49:30.595Z,16.20
2023-04-10T13:51:58.224Z,16.30
2023-04-10T13:54:26.513Z,16.60
2023-04-10T13:56:55.134Z,17.20
2023-04-10T13:59:22.898Z,17.40
2023-04-10T14:01:53.050Z,17.70
2023-04-10T14:04:20.643Z,17.90
2023-04-10T14:06:48.560Z,18.10
2023-04-10T14:09:17.489Z,18.10
2023-04-10T14:11:44.769Z,18.00
2023-04-10T14:14:12.879Z,18.00
2023-04-10T14:16:40.432Z,17.80
2023-04-10T14:19:07.821Z,17.70
2023-04-10T14:21:35.460Z,17.30
2023-04-10T14:24:03.270Z,16.90
2023-04-10T14:26:31.730Z,16.60
2023-04-10T14:28:59.160Z,16.20
2023-04-10T14:31:29.443Z,16.10
2023-04-10T14:33:57.360Z,15.90
2023-04-10T14:36:24.976Z,15.60
2023-04-10T14:38:52.595Z,15.60
2023-04-10T14:41:21.042Z,15.50
2023-04-10T14:43:48.966Z,15.30
2023-04-10T14:46:16.286Z,15.20
2023-04-10T14:48:44.028Z,15.00
2023-04-10T14:51:13.385Z,14.90
2023-04-10T14:53:40.868Z,14.80
2023-04-10T14:56:12.458Z,14.70
2023-04-10T14:58:40.517Z,14.70
2023-04-10T15:01:10.788Z,14.50
2023-04-10T15:03:38.545Z,14.60
2023-04-10T15:06:07.343Z,14.60
2023-04-10T15:08:34.987Z,14.60
2023-04-10T15:11:05.526Z,14.80
2023-04-10T15:13:34.082Z,15.00
2023-04-10T15:16:01.516Z,15.40
2023-04-10T15:18:28.721Z,15.60
2023-04-10T15:20:56.147Z,15.60
2023-04-10T15:23:23.481Z,15.70
2023-04-10T15:25:51.245Z,15.60
2023-04-10T15:28:18.465Z,15.60
2023-04-10T15:30:45.532Z,15.70
2023-04-10T15:33:12.982Z,15.70
2023-04-10T15:35:40.258Z,15.70
2023-04-10T15:38:07.589Z,15.70
2023-04-10T15:40:37.055Z,15.80
2023-04-10T15:43:04.307Z,15.90
2023-04-10T15:45:31.413Z,16.00
2023-04-10T15:48:01.401Z,16.00
2023-04-10T15:50:28.747Z,16.10
2023-04-10T15:52:55.936Z,16.00
2023-04-10T15:55:23.112Z,16.00
2023-04-10T15:57:50.157Z,16.00
2023-04-10T16:00:17.909Z,15.70
2023-04-10T16:02:45.665Z,15.50
2023-04-10T16:05:13.158Z,15.30
2023-04-10T16:07:42.291Z,15.00
2023-04-10T16:10:09.904Z,14.90
2023-04-10T16:12:37.936Z,14.80
2023-04-10T16:15:08.204Z,14.70
2023-04-10T16:17:35.760Z,14.70
2023-04-10T16:20:07.634Z,14.50
2023-04-10T16:22:34.829Z,14.50
2023-04-10T16:27:32.356Z,14.30
2023-04-10T16:29:59.556Z,14.30
2023-04-10T16:32:26.762Z,14.10
2023-04-10T16:34:53.971Z,13.90
2023-04-10T16:37:21.031Z,13.80
2023-04-10T16:39:48.254Z,13.70
2023-04-10T16:42:15.385Z,13.70
2023-04-10T16:44:42.471Z,13.60
2023-04-10T16:47:09.585Z,13.50
2023-04-10T16:49:37.069Z,13.40
2023-04-10T16:52:04.057Z,13.40
2023-04-10T16:54:31.299Z,13.30
2023-04-10T16:56:58.371Z,13.20
2023-04-10T16:59:25.485Z,13.20
2023-04-10T17:01:52.672Z,13.00
2023-04-10T17:04:20.578Z,12.90
2023-04-10T17:06:47.831Z,12.80
2023-04-10T17:09:14.988Z,12.70
2023-04-10T17:11:42.315Z,12.60
2023-04-10T17:14:10.627Z,12.50
2023-04-10T17:16:37.828Z,12.40
2023-04-10T17:19:05.356Z,12.20
2023-04-10T17:21:32.543Z,12.00
2023-04-10T17:23:59.688Z,11.70
2023-04-10T17:26:26.793Z,11.60
2023-04-10T17:28:54.226Z,11.40
2023-04-10T17:31:21.559Z,11.30
2023-04-10T17:33:48.841Z,11.20
2023-04-10T17:36:16.012Z,11.10
2023-04-10T17:38:43.252Z,11.00
2023-04-10T17:41:13.784Z,10.90
2023-04-10T17:43:41.447Z,10.70
2023-04-10T17:46:14.613Z,10.60
2023-04-10T17:48:43.198Z,10.50
2023-04-10T17:51:12.026Z,10.40
2023-04-10T17:53:39.411Z,10.20
2023-04-10T17:56:07.061Z,10.10
2023-04-10T17:58:34.668Z,10.00
2023-04-10T18:01:01.965Z,9.80
2023-04-10T18:03:29.202Z,9.70
2023-04-10T18:05:56.482Z,9.70
2023-04-10T18:08:24.136Z,9.60
2023-04-10T18:10:51.183Z,9.50
2023-04-10T18:13:18.473Z,9.40
2023-04-10T18:15:46.079Z,9.30
2023-04-10T18:18:13.609Z,9.20
2023-04-10T18:20:41.080Z,9.20
2023-04-10T18:23:08.494Z,9.10
2023-04-10T18:25:36.216Z,9.10
2023-04-10T18:28:14.268Z,9.00
2023-04-10T18:30:43.623Z,9.00
2023-04-10T18:33:11.769Z,8.90
2023-04-10T18:35:39.282Z,8.80
2023-04-10T18:38:07.169Z,8.70
2023-04-10T18:40:36.951Z,8.60
2023-04-10T18:43:04.669Z,8.60
2023-04-10T18:45:34.630Z,8.40
2023-04-10T18:48:02.492Z,8.30
2023-04-10T18:50:31.000Z,8.20
2023-04-10T18:52:58.444Z,8.00
2023-04-10T18:55:26.128Z,7.90
2023-04-10T18:57:53.505Z,7.80
2023-04-10T19:00:21.180Z,7.80
2023-04-10T19:02:48.693Z,7.80
2023-04-10T19:05:17.013Z,7.70
2023-04-10T19:07:56.578Z,7.60
2023-04-10T19:10:30.636Z,7.60
2023-04-10T19:12:58.075Z,7.60
2023-04-10T19:15:25.809Z,7.50
2023-04-10T19:17:54.752Z,7.40
2023-04-10T19:20:49.279Z,7.40
2023-04-10T19:23:11.843Z,7.30
2023-04-10T19:25:39.165Z,7.30
2023-04-10T19:28:07.030Z,7.30
2023-04-10T19:30:34.582Z,7.20
2023-04-10T19:33:01.634Z,7.20
2023-04-10T19:35:28.872Z,7.10
2023-04-10T19:37:57.849Z,7.00
2023-04-10T19:40:25.541Z,7.00
2023-04-10T19:42:52.902Z,7.00
2023-04-10T19:45:22.297Z,6.90
2023-04-10T19:47:51.382Z,6.80
2023-04-10T19:50:19.636Z,6.70
2023-04-10T19:52:47.342Z,6.70
2023-04-10T19:55:16.926Z,6.70
2023-04-10T19:57:46.380Z,6.60
2023-04-10T20:00:14.932Z,6.60
2023-04-10T20:02:42.955Z,6.60
2023-04-10T20:05:11.330Z,6.50
2023-04-10T20:07:38.884Z,6.50
2023-04-10T20:10:06.754Z,6.40
2023-04-10T20:12:34.753Z,6.40
2023-04-10T20:15:03.994Z,6.40
2023-04-10T20:17:31.905Z,6.30
2023-04-10T20:19:59.399Z,6.20
2023-04-10T20:22:26.896Z,6.20
2023-04-10T20:24:54.477Z,6.10
2023-04-10T20:27:21.526Z,6.10
2023-04-10T20:29:48.613Z,6.10
2023-04-10T20:32:15.937Z,6.00
2023-04-10T20:34:43.052Z,5.90
2023-04-10T20:37:10.939Z,5.80
2023-04-10T20:39:38.428Z,5.70
2023-04-10T20:42:06.969Z,5.70
2023-04-10T20:44:38.010Z,5.80
2023-04-10T20:47:06.993Z,5.70
2023-04-10T20:49:34.240Z,5.70
2023-04-10T20:52:02.170Z,5.60
2023-04-10T20:54:29.956Z,5.60
2023-04-10T20:57:00.372Z,5.40
2023-04-10T20:59:28.377Z,5.40
2023-04-10T21:01:55.937Z,5.30
2023-04-10T21:04:23.162Z,5.20
2023-04-10T21:06:51.022Z,5.20
2023-04-10T21:09:18.314Z,5.10
2023-04-10T21:11:45.521Z,4.90
2023-04-10T21:14:13.525Z,4.90
2023-04-10T21:16:42.714Z,4.80
2023-04-10T21:19:09.955Z,4.80
2023-04-10T21:21:37.221Z,4.90
2023-04-10T21:24:04.718Z,4.80
2023-04-10T21:26:31.785Z,4.70
2023-04-10T21:28:58.878Z,4.70
2023-04-10T21:31:26.261Z,4.80
2023-04-10T21:33:53.322Z,4.80
2023-04-10T21:36:20.870Z,4.70
2023-04-10T21:38:48.085Z,4.80
2023-04-10T21:41:15.551Z,4.80
2023-04-10T21:43:43.261Z,4.70
2023-04-10T21:46:11.077Z,4.60
2023-04-10T21:48:38.319Z,4.60
2023-04-10T21:51:05.903Z,4.50
2023-04-10T21:53:33.000Z,4.50
2023-04-10T21:55:59.993Z,4.50
2023-04-10T21:58:27.181Z,4.50
2023-04-10T22:00:54.566Z,4.40
2023-04-10T22:03:22.391Z,4.30
2023-04-10T22:05:50.684Z,4.20
2023-04-10T22:08:20.010Z,4.30
2023-04-10T22:10:48.155Z,4.30
2023-04-10T22:13:27.351Z,4.20
2023-04-10T22:15:58.274Z,4.10
2023-04-10T22:18:25.478Z,4.00
2023-04-10T22:20:52.650Z,3.90
2023-04-10T22:23:19.745Z,3.80
2023-04-10T22:25:46.922Z,3.80
2023-04-10T22:28:14.461Z,3.70
2023-04-10T22:30:41.818Z,3.70
2023-04-10T22:33:08.976Z,3.80
2023-04-10T22:35:36.106Z,3.80
2023-04-10T22:38:04.214Z,3.80
2023-04-10T22:40:31.481Z,3.80
2023-04-10T22:42:58.562Z,3.80
2023-04-10T22:45:25.708Z,3.80
2023-04-10T22:47:52.768Z,3.80
2023-04-10T22:50:21.095Z,3.80
2023-04-10T22:52:48.221Z,3.80
2023-04-10T22:55:15.347Z,3.70
2023-04-10T22:57:42.501Z,3.60
2023-04-10T23:00:09.893Z,3.50
2023-04-10T23:02:37.186Z,3.50
2023-04-10T23:05:04.663Z,3.50
2023-04-10T23:07:31.795Z,3.50
2023-04-10T23:09:59.654Z,3.40
2023-04-10T23:12:27.116Z,3.50
2023-04-10T23:14:54.255Z,3.60
2023-04-10T23:17:21.335Z,3.50
2023-04-10T23:19:48.417Z,3.40
2023-04-10T23:22:15.641Z,3.40
2023-04-10T23:24:42.775Z,3.30
2023-04-10T23:27:09.932Z,3.30
2023-04-10T23:29:37.131Z,3.20
2023-04-10T23:32:04.252Z,3.20
2023-04-10T23:34:31.280Z,3.10
2023-04-10T23:36:58.344Z,3.10
2023-04-10T23:39:25.424Z,3.10
2023-04-10T23:41:52.803Z,3.00
2023-04-10T23:44:19.962Z,3.10
2023-04-10T23:46:47.082Z,3.20
2023-04-10T23:49:14.257Z,3.10
2023-04-10T23:51:41.301Z,3.20
2023-04-10T23:54:08.552Z,3.10
2023-04-10T23:56:35.527Z,3.10
2023-04-10T23:59:02.554Z,3.10
